Airport View

Enter AWOS ICAO identifier for current METAR.

ex. KFNL

KMER 170920Z AUTO 7SM CLR 08/08 A3012 RMK AO1

17 Nov 2019 09:38

Frequency: 124.475

Phone: 209-725-0104

Other Area AWOS: KMCE - KMOD - KMAE - KO22

TAF KMER 170525Z 1706/1806 VRB03KT 6SM HZ SKC FM171100 00000KT 4SM BR HZ SKC FM171700 VRB03KT 6SM HZ SKC